Chanute Martin Johnson Airport
KCNU : rendu visible

Aérodrome :











RETROUVEZ-NOUS SUR...

 
LOGIN :

S'inscrire | Disclaimer

   EN    FR    IT 

 









Légende :    VFR   VFR Marginal   IFR   IFR Intensif   IFR Très Intensif
Visi : 
Plafond : 
>= 8 km
>= 3000ft
5 à 8 km
1000 à 3000 ft
1500m à 5 km
500 à 1000 ft
800 à 1500m
200 à 500 ft
< 800m
< 200 ft
Symboles :   Orages  Brouillard  Fortes neiges  Fortes précipitations  Vent > 20 kt






- Altitude de l'aérodrome : 1002 ft


KCNU - Chanute Martin Johnson

DERNIER METAR :
  • 010552Z AUTO 21005KT 10SM CLR 09/06 A2997 RMK AO2 SLP146 T00940061 10194 20089 402170089 56010 $

METARs EXPIRÉS :
  • 010452Z AUTO 20005KT 10SM CLR 12/07 A2998 RMK AO2 SLP147 T01170067 $
  • 010352Z AUTO 21006KT 10SM CLR 11/07 A2999 RMK AO2 SLP152 T01110067 $
  • 010252Z AUTO 23006KT 10SM CLR 13/07 A3000 RMK AO2 SLP157 T01330067 53008 $

TAF KCNU
Valide du 01 à 06h jusqu'au 02 à 06h UTC


010520Z 0106/0206 20005KT P6SM SKC
FM011200 17006KT P6SM FEW250
FM011600 19012KT P6SM SKC
FM011900 18015G23KT P6SM FEW250
FM020000 16014KT P6SM BKN200
FM020500 17013KT P6SM OVC150 WS013/19030KT



MET'MAP, la Météo Aéronautique d'un coup d'oeil ! - Copyright ORBIFLY Décembre 2007 - Disclaimer

ORBIFLY MET'MAP TEAM :

Programmation & Développement : Alexandra Zaïnal
Sur une idée originale de : Baudouin d'Aumeries
Assistance à la programmation : Marc-Olivier Méhu
Soutien technique & logistique : Manuel Goepfert

Contact : metmap@orbifly.com




SOURCES & CREDITS :

   NOAA       Earth
Advisory